createdAt,value
2018-11-06T00:02:20.127Z,77.29
2018-11-06T00:04:53.988Z,77.20
2018-11-06T00:07:22.263Z,77.59
2018-11-06T00:09:50.555Z,77.56
2018-11-06T00:12:18.824Z,77.52
2018-11-06T00:14:47.046Z,77.96
2018-11-06T00:17:15.375Z,77.96
2018-11-06T00:19:43.634Z,78.95
2018-11-06T00:22:12.119Z,78.03
2018-11-06T00:24:40.337Z,78.59
2018-11-06T00:27:08.764Z,79.93
2018-11-06T00:29:37.097Z,80.01
2018-11-06T00:32:05.215Z,78.94
2018-11-06T00:34:33.509Z,78.75
2018-11-06T00:37:01.969Z,78.93
2018-11-06T00:39:30.223Z,78.43
2018-11-06T00:41:58.302Z,78.08
2018-11-06T00:44:26.554Z,77.79
2018-11-06T00:46:54.671Z,77.73
2018-11-06T00:49:23.186Z,77.60
2018-11-06T00:51:51.423Z,77.81
2018-11-06T00:54:19.871Z,78.17
2018-11-06T00:56:48.012Z,80.17
2018-11-06T00:59:16.159Z,80.52
2018-11-06T01:01:44.318Z,79.92
2018-11-06T01:04:14.276Z,80.80
2018-11-06T01:06:42.579Z,79.46
2018-11-06T01:09:13.115Z,79.86
2018-11-06T01:11:42.342Z,79.15
2018-11-06T01:14:10.119Z,78.67
2018-11-06T01:16:39.046Z,79.36
2018-11-06T01:19:07.984Z,79.79
2018-11-06T01:21:36.283Z,78.74
2018-11-06T01:24:04.355Z,78.69
2018-11-06T01:26:32.890Z,80.39
2018-11-06T01:29:01.404Z,80.18
2018-11-06T01:31:29.407Z,79.86
2018-11-06T01:33:57.903Z,80.44
2018-11-06T01:36:26.139Z,81.02
2018-11-06T01:38:54.595Z,82.19
2018-11-06T01:41:22.939Z,82.53
2018-11-06T01:43:51.399Z,82.24
2018-11-06T01:46:19.623Z,82.13
2018-11-06T01:48:47.915Z,81.85
2018-11-06T01:51:16.216Z,81.72
2018-11-06T01:53:44.111Z,81.06
2018-11-06T01:56:12.569Z,80.68
2018-11-06T01:58:40.787Z,80.83
2018-11-06T02:01:09.089Z,80.21
2018-11-06T02:03:37.460Z,79.71
2018-11-06T02:06:05.871Z,79.83
2018-11-06T02:08:34.306Z,80.59
2018-11-06T02:11:02.460Z,81.00
2018-11-06T02:13:30.709Z,79.88
2018-11-06T02:15:59.184Z,80.27
2018-11-06T02:18:27.463Z,79.20
2018-11-06T02:20:55.951Z,78.89
2018-11-06T02:23:24.185Z,79.32
2018-11-06T02:25:52.484Z,78.52
2018-11-06T02:28:20.764Z,78.17
2018-11-06T02:30:48.986Z,79.25
2018-11-06T02:33:17.102Z,78.20
2018-11-06T02:35:45.391Z,78.44
2018-11-06T02:38:13.806Z,79.69
2018-11-06T02:40:41.951Z,80.47
2018-11-06T02:43:10.189Z,80.79
2018-11-06T02:45:38.694Z,79.99
2018-11-06T02:48:07.148Z,79.68
2018-11-06T02:50:35.426Z,78.39
2018-11-06T02:53:04.827Z,78.28
2018-11-06T02:55:33.219Z,77.09
2018-11-06T02:58:01.448Z,76.06
2018-11-06T03:00:29.720Z,77.22
2018-11-06T03:02:57.854Z,77.75
2018-11-06T03:05:26.313Z,77.51
2018-11-06T03:07:54.587Z,77.07
2018-11-06T03:10:22.947Z,78.90
2018-11-06T03:12:51.319Z,78.51
2018-11-06T03:15:19.387Z,78.04
2018-11-06T03:17:47.503Z,77.67
2018-11-06T03:20:15.725Z,77.92
2018-11-06T03:22:44.279Z,77.61
2018-11-06T03:25:12.604Z,77.32
2018-11-06T03:27:40.859Z,77.98
2018-11-06T03:30:11.422Z,79.27
2018-11-06T03:32:40.005Z,78.11
2018-11-06T03:35:09.015Z,77.62
2018-11-06T03:37:36.947Z,76.76
2018-11-06T03:40:05.496Z,76.48
2018-11-06T03:42:33.716Z,76.07
2018-11-06T03:45:02.201Z,75.07
2018-11-06T03:47:30.490Z,75.01
2018-11-06T03:49:58.859Z,75.07
2018-11-06T03:52:27.264Z,74.70
2018-11-06T03:54:55.543Z,74.18
2018-11-06T03:57:23.957Z,74.72
2018-11-06T03:59:52.443Z,73.75
2018-11-06T04:02:20.599Z,73.28
2018-11-06T04:04:49.040Z,72.56
2018-11-06T04:07:17.270Z,73.01
2018-11-06T04:09:45.639Z,72.80
2018-11-06T04:12:13.839Z,72.79
2018-11-06T04:14:42.295Z,73.43
2018-11-06T04:17:10.599Z,73.57
2018-11-06T04:19:39.059Z,73.17
2018-11-06T04:22:07.134Z,73.52
2018-11-06T04:24:35.263Z,73.39
2018-11-06T04:27:03.771Z,73.47
2018-11-06T04:29:31.819Z,73.87
2018-11-06T04:32:00.291Z,73.35
2018-11-06T04:34:28.575Z,73.20
2018-11-06T04:36:56.990Z,73.35
2018-11-06T04:39:25.142Z,73.30
2018-11-06T04:41:53.195Z,73.08
2018-11-06T04:44:21.439Z,74.51
2018-11-06T04:46:49.747Z,74.89
2018-11-06T04:49:18.392Z,75.50
2018-11-06T04:51:46.630Z,75.28
2018-11-06T04:54:14.735Z,75.84
2018-11-06T04:56:43.227Z,75.66
2018-11-06T04:59:11.787Z,76.12
2018-11-06T05:01:39.999Z,75.92
2018-11-06T05:04:08.548Z,75.45
2018-11-06T05:06:36.729Z,75.73
2018-11-06T05:09:06.987Z,75.91
2018-11-06T05:11:35.340Z,75.39
2018-11-06T05:14:03.735Z,76.04
2018-11-06T05:16:32.108Z,77.29
2018-11-06T05:19:00.208Z,76.65
2018-11-06T05:21:28.546Z,76.39
2018-11-06T05:23:56.755Z,77.02
2018-11-06T05:26:25.207Z,78.14
2018-11-06T05:28:53.314Z,78.60
2018-11-06T05:31:21.615Z,77.99
2018-11-06T05:33:50.027Z,77.48
2018-11-06T05:36:18.069Z,77.57
2018-11-06T05:38:46.255Z,76.76
2018-11-06T05:41:14.659Z,76.55
2018-11-06T05:43:42.791Z,76.49
2018-11-06T05:46:11.228Z,76.57
2018-11-06T05:48:39.311Z,76.26
2018-11-06T05:51:07.856Z,76.76
2018-11-06T05:53:36.034Z,77.76
2018-11-06T05:56:04.531Z,78.08
2018-11-06T05:58:32.785Z,77.30
2018-11-06T06:01:01.133Z,76.75
2018-11-06T06:03:29.336Z,76.78
2018-11-06T06:05:57.639Z,77.11
2018-11-06T06:08:25.927Z,77.21
2018-11-06T06:10:54.225Z,76.64
2018-11-06T06:13:22.644Z,76.09
2018-11-06T06:15:50.910Z,76.60
2018-11-06T06:18:19.184Z,76.37
2018-11-06T06:20:47.491Z,76.36
2018-11-06T06:23:15.702Z,76.20
2018-11-06T06:25:43.786Z,76.20
2018-11-06T06:28:12.177Z,76.03
2018-11-06T06:30:40.576Z,75.05
2018-11-06T06:33:08.875Z,75.41
2018-11-06T06:35:37.342Z,75.79
2018-11-06T06:38:05.619Z,75.65
2018-11-06T06:40:34.092Z,75.52
2018-11-06T06:43:02.587Z,75.13
2018-11-06T06:45:30.876Z,74.93
2018-11-06T06:47:59.119Z,74.73
2018-11-06T06:50:27.631Z,74.40
2018-11-06T06:52:55.895Z,74.44
2018-11-06T06:55:24.358Z,74.87
2018-11-06T06:57:52.390Z,75.04
2018-11-06T07:00:22.160Z,74.14
2018-11-06T07:02:50.200Z,75.32
2018-11-06T07:05:21.683Z,74.61
2018-11-06T07:07:49.847Z,75.47
2018-11-06T07:10:19.594Z,75.57
2018-11-06T07:12:48.207Z,76.11
2018-11-06T07:15:17.739Z,75.94
2018-11-06T07:17:47.069Z,76.53
2018-11-06T07:20:18.606Z,76.36
2018-11-06T07:22:47.094Z,76.03
2018-11-06T07:25:15.696Z,76.44
2018-11-06T07:27:44.980Z,77.42
2018-11-06T07:30:15.555Z,76.61
2018-11-06T07:32:44.115Z,75.87
2018-11-06T07:35:13.136Z,76.06
2018-11-06T07:37:41.786Z,75.10
2018-11-06T07:40:12.271Z,74.62
2018-11-06T07:42:40.319Z,75.12
2018-11-06T07:45:11.968Z,74.39
2018-11-06T07:47:40.146Z,74.13
2018-11-06T07:50:08.937Z,75.41
2018-11-06T07:52:37.645Z,75.93
2018-11-06T07:55:07.071Z,75.33
2018-11-06T07:57:35.390Z,76.18
2018-11-06T08:00:03.792Z,76.30
2018-11-06T08:02:37.343Z,75.32
2018-11-06T08:05:05.615Z,76.39
2018-11-06T08:07:33.932Z,75.89
2018-11-06T08:10:02.204Z,75.69
2018-11-06T08:12:30.709Z,75.42
2018-11-06T08:14:58.926Z,75.90
2018-11-06T08:17:27.185Z,75.75
2018-11-06T08:19:54.900Z,75.11
2018-11-06T08:22:22.584Z,75.02
2018-11-06T08:24:50.779Z,75.16
2018-11-06T08:27:19.019Z,74.99
2018-11-06T08:29:47.138Z,74.31
2018-11-06T08:32:16.084Z,74.59
2018-11-06T08:34:43.831Z,74.32
2018-11-06T08:37:12.023Z,74.39
2018-11-06T08:39:40.220Z,75.10
2018-11-06T08:42:08.683Z,74.00
2018-11-06T08:44:36.972Z,73.58
2018-11-06T08:47:05.486Z,72.73
2018-11-06T08:49:33.623Z,74.96
2018-11-06T08:52:01.825Z,75.07
2018-11-06T08:54:29.790Z,75.82
2018-11-06T08:56:58.115Z,74.92
2018-11-06T08:59:26.432Z,73.97
2018-11-06T09:01:54.935Z,72.93
2018-11-06T09:04:28.493Z,72.12
2018-11-06T09:06:56.795Z,72.21
2018-11-06T09:09:25.079Z,72.08
2018-11-06T09:11:53.496Z,71.25
2018-11-06T09:14:21.659Z,72.02
2018-11-06T09:16:50.144Z,72.57
2018-11-06T09:19:18.334Z,71.84
2018-11-06T09:21:47.518Z,73.14
2018-11-06T09:24:15.736Z,72.10
2018-11-06T09:26:44.227Z,72.48
2018-11-06T09:29:12.504Z,72.54
2018-11-06T09:31:40.967Z,72.23
2018-11-06T09:34:09.176Z,70.28
2018-11-06T09:36:37.601Z,68.33
2018-11-06T09:39:08.444Z,68.74
2018-11-06T09:41:36.740Z,69.14
2018-11-06T09:44:04.832Z,70.20
2018-11-06T09:46:33.093Z,70.39
2018-11-06T09:49:01.359Z,70.00
2018-11-06T09:51:29.652Z,69.94
2018-11-06T09:53:57.906Z,70.06
2018-11-06T09:56:26.224Z,69.12
2018-11-06T09:58:54.682Z,68.78
2018-11-06T10:01:22.924Z,69.09
2018-11-06T10:03:51.239Z,68.97
2018-11-06T10:06:19.528Z,69.47
2018-11-06T10:08:47.930Z,68.81
2018-11-06T10:11:16.319Z,68.89
2018-11-06T10:13:44.556Z,67.66
2018-11-06T10:16:13.002Z,67.97
2018-11-06T10:18:41.344Z,68.51
2018-11-06T10:21:09.833Z,68.79
2018-11-06T10:23:37.964Z,69.13
2018-11-06T10:26:06.139Z,68.84
2018-11-06T10:28:34.227Z,68.45
2018-11-06T10:31:02.495Z,69.08
2018-11-06T10:33:30.776Z,70.62
2018-11-06T10:35:58.915Z,70.63
2018-11-06T10:38:27.168Z,70.51
2018-11-06T10:40:55.406Z,71.53
2018-11-06T10:43:23.704Z,72.12
2018-11-06T10:45:52.146Z,70.77
2018-11-06T10:48:20.611Z,70.62
2018-11-06T10:50:48.867Z,70.41
2018-11-06T10:53:17.323Z,68.88
2018-11-06T10:55:45.911Z,68.80
2018-11-06T10:58:14.210Z,68.67
2018-11-06T11:00:48.329Z,69.24
2018-11-06T11:03:22.296Z,68.57
2018-11-06T11:05:50.448Z,67.92
2018-11-06T11:08:18.862Z,67.48
2018-11-06T11:10:46.951Z,67.33
2018-11-06T11:13:15.317Z,66.19
2018-11-06T11:15:43.683Z,65.65
2018-11-06T11:18:11.775Z,65.41
2018-11-06T11:20:40.084Z,64.99
2018-11-06T11:23:08.539Z,63.63
2018-11-06T11:25:37.132Z,62.93
2018-11-06T11:28:05.344Z,62.08
2018-11-06T11:30:33.561Z,62.57
2018-11-06T11:33:01.837Z,62.33
2018-11-06T11:35:30.189Z,62.94
2018-11-06T11:37:57.968Z,63.02
2018-11-06T11:40:26.270Z,63.89
2018-11-06T11:42:54.736Z,63.47
2018-11-06T11:45:23.008Z,62.72
2018-11-06T11:47:51.475Z,64.50
2018-11-06T11:50:19.428Z,65.32
2018-11-06T11:52:47.643Z,65.35
2018-11-06T11:55:16.006Z,64.18
2018-11-06T11:57:44.014Z,62.94
2018-11-06T12:00:17.695Z,62.42
2018-11-06T12:02:45.867Z,61.88
2018-11-06T12:05:14.337Z,61.53
2018-11-06T12:07:42.579Z,63.50
2018-11-06T12:10:11.494Z,62.13
2018-11-06T12:12:39.930Z,63.24
2018-11-06T12:15:09.894Z,63.57
2018-11-06T12:17:38.249Z,63.85
2018-11-06T12:20:06.508Z,59.78
2018-11-06T12:22:34.760Z,61.59
2018-11-06T12:25:03.224Z,62.27
2018-11-06T12:27:31.499Z,62.65
2018-11-06T12:29:59.743Z,64.03
2018-11-06T12:32:28.031Z,62.29
2018-11-06T12:34:56.107Z,64.06
2018-11-06T12:37:24.387Z,63.34
2018-11-06T12:39:52.920Z,62.86
2018-11-06T12:42:21.295Z,62.97
2018-11-06T12:44:49.608Z,60.14
2018-11-06T12:47:17.921Z,61.49
2018-11-06T12:49:45.661Z,61.85
2018-11-06T12:52:14.039Z,61.24
2018-11-06T12:54:42.351Z,60.26
2018-11-06T12:57:10.612Z,59.13
2018-11-06T12:59:39.068Z,61.21
2018-11-06T13:02:07.371Z,61.91
2018-11-06T13:04:35.449Z,62.22
2018-11-06T13:07:03.767Z,62.00
2018-11-06T13:09:32.166Z,60.76
2018-11-06T13:12:00.460Z,59.89
2018-11-06T13:14:28.723Z,60.45
2018-11-06T13:16:57.020Z,60.14
2018-11-06T13:19:25.543Z,59.52
2018-11-06T13:21:53.727Z,61.31
2018-11-06T13:24:21.636Z,62.84
2018-11-06T13:26:49.894Z,63.21
2018-11-06T13:29:18.136Z,61.38
2018-11-06T13:31:46.252Z,62.32
2018-11-06T13:34:14.530Z,61.25
2018-11-06T13:36:42.617Z,62.51
2018-11-06T13:39:12.869Z,61.91
2018-11-06T13:41:41.690Z,63.28
2018-11-06T13:44:10.329Z,65.45
2018-11-06T13:46:38.207Z,67.46
2018-11-06T13:49:06.232Z,66.74
2018-11-06T13:51:34.700Z,65.21
2018-11-06T13:54:02.936Z,66.59
2018-11-06T13:56:31.350Z,68.72
2018-11-06T13:58:59.455Z,68.64
2018-11-06T14:01:27.807Z,67.69
2018-11-06T14:03:56.196Z,68.87
2018-11-06T14:06:24.324Z,67.78
2018-11-06T14:08:52.471Z,67.72
2018-11-06T14:11:20.707Z,68.09
2018-11-06T14:13:49.164Z,69.09
2018-11-06T14:16:17.410Z,68.16
2018-11-06T14:18:45.775Z,69.11
2018-11-06T14:21:13.843Z,67.55
2018-11-06T14:23:42.121Z,67.84
2018-11-06T14:26:10.565Z,67.92
2018-11-06T14:28:39.027Z,69.55
2018-11-06T14:31:07.141Z,70.01
2018-11-06T14:33:35.455Z,70.12
2018-11-06T14:36:03.875Z,69.34
2018-11-06T14:38:32.077Z,69.52
2018-11-06T14:41:00.430Z,68.62
2018-11-06T14:43:28.204Z,69.41
2018-11-06T14:45:56.205Z,70.36
2018-11-06T14:48:24.856Z,70.19
2018-11-06T14:50:53.156Z,69.06
2018-11-06T14:53:21.395Z,69.59
2018-11-06T14:55:49.779Z,69.19
2018-11-06T14:58:18.010Z,68.96
2018-11-06T15:00:46.437Z,69.82
2018-11-06T15:03:14.575Z,68.97
2018-11-06T15:05:42.659Z,68.17
2018-11-06T15:08:11.117Z,68.50
2018-11-06T15:10:39.359Z,67.57
2018-11-06T15:13:07.574Z,68.49
2018-11-06T15:15:35.691Z,67.53
2018-11-06T15:18:04.173Z,68.09
2018-11-06T15:20:32.463Z,66.89
2018-11-06T15:23:01.016Z,68.02
2018-11-06T15:25:29.362Z,67.72
2018-11-06T15:27:57.489Z,67.58
2018-11-06T15:30:25.779Z,67.03
2018-11-06T15:32:54.227Z,67.59
2018-11-06T15:35:22.523Z,67.18
2018-11-06T15:37:50.248Z,67.07
2018-11-06T15:40:19.223Z,66.91
2018-11-06T15:42:47.036Z,67.16
2018-11-06T15:45:16.631Z,66.88
2018-11-06T15:47:45.388Z,66.99
2018-11-06T15:50:14.719Z,67.36
2018-11-06T15:52:43.755Z,66.86
2018-11-06T15:55:11.983Z,67.45
2018-11-06T15:57:40.498Z,68.12
2018-11-06T16:00:14.080Z,68.19
2018-11-06T16:02:42.502Z,68.88
2018-11-06T16:05:10.659Z,67.21
2018-11-06T16:07:38.906Z,66.54
2018-11-06T16:10:09.919Z,66.45
2018-11-06T16:12:37.716Z,66.90
2018-11-06T16:15:06.194Z,70.08
2018-11-06T16:17:34.294Z,69.00
2018-11-06T16:20:02.055Z,67.14
2018-11-06T16:22:30.304Z,66.99
2018-11-06T16:24:58.045Z,67.19
2018-11-06T16:27:25.827Z,66.87
2018-11-06T16:29:54.077Z,67.32
2018-11-06T16:32:22.512Z,66.80
2018-11-06T16:34:50.841Z,67.80
2018-11-06T16:37:19.667Z,67.55
2018-11-06T16:39:48.112Z,68.53
2018-11-06T16:42:16.591Z,69.23
2018-11-06T16:44:44.863Z,70.35
2018-11-06T16:47:13.375Z,69.65
2018-11-06T16:49:41.659Z,70.77
2018-11-06T16:52:10.207Z,72.19
2018-11-06T16:54:38.407Z,71.92
2018-11-06T16:57:06.741Z,72.62
2018-11-06T16:59:35.020Z,70.28
2018-11-06T17:02:03.074Z,69.50
2018-11-06T17:04:31.247Z,70.70
2018-11-06T17:06:59.576Z,72.00
2018-11-06T17:09:27.694Z,71.37
2018-11-06T17:11:56.136Z,71.57
2018-11-06T17:14:24.489Z,71.58
2018-11-06T17:16:52.895Z,70.83
2018-11-06T17:19:21.179Z,69.17
2018-11-06T17:21:49.452Z,69.34
2018-11-06T17:24:17.944Z,68.30
2018-11-06T17:26:46.427Z,68.21
2018-11-06T17:29:14.308Z,67.97
2018-11-06T17:31:42.076Z,67.73
2018-11-06T17:34:09.807Z,67.90
2018-11-06T17:36:38.332Z,68.09
2018-11-06T17:39:08.970Z,67.91
2018-11-06T17:41:36.867Z,66.87
2018-11-06T17:44:05.378Z,67.78
2018-11-06T17:46:33.619Z,67.72
2018-11-06T17:49:02.144Z,68.12
2018-11-06T17:51:30.163Z,68.47
2018-11-06T17:53:58.607Z,68.01
2018-11-06T17:56:26.997Z,67.80
2018-11-06T17:58:54.927Z,68.15
2018-11-06T18:01:22.639Z,67.90
2018-11-06T18:03:50.417Z,68.65
2018-11-06T18:06:18.201Z,68.52
2018-11-06T18:08:46.011Z,69.08
2018-11-06T18:11:13.755Z,70.48
2018-11-06T18:13:41.551Z,71.20
2018-11-06T18:16:09.296Z,71.53
2018-11-06T18:18:37.043Z,70.45
2018-11-06T18:21:05.256Z,69.98
2018-11-06T18:23:33.643Z,70.24
2018-11-06T18:26:01.892Z,69.19
2018-11-06T18:28:30.255Z,69.97
2018-11-06T18:30:58.480Z,69.50
2018-11-06T18:33:26.884Z,68.68
2018-11-06T18:35:55.266Z,69.62
2018-11-06T18:38:23.494Z,71.14
2018-11-06T18:40:51.185Z,72.00
2018-11-06T18:43:19.658Z,71.50
2018-11-06T18:45:47.721Z,71.02
2018-11-06T18:48:16.240Z,70.69
2018-11-06T18:50:44.544Z,70.54
2018-11-06T18:53:12.928Z,70.73
2018-11-06T18:55:41.053Z,70.07
2018-11-06T18:58:09.697Z,69.50
2018-11-06T19:00:37.424Z,70.09
2018-11-06T19:03:05.244Z,68.90
2018-11-06T19:05:33.714Z,68.79
2018-11-06T19:08:01.771Z,68.28
2018-11-06T19:10:29.874Z,68.27
2018-11-06T19:12:58.179Z,67.88
2018-11-06T19:15:26.443Z,68.46
2018-11-06T19:17:54.898Z,68.97
2018-11-06T19:20:23.207Z,69.03
2018-11-06T19:22:51.675Z,68.38
2018-11-06T19:25:19.959Z,69.31
2018-11-06T19:27:48.439Z,69.38
2018-11-06T19:30:17.910Z,69.25
2018-11-06T19:32:45.986Z,69.16
2018-11-06T19:35:14.592Z,68.81
2018-11-06T19:37:42.868Z,68.89
2018-11-06T19:40:12.424Z,68.48
2018-11-06T19:42:41.520Z,68.41
2018-11-06T19:45:10.223Z,68.32
2018-11-06T19:47:38.567Z,68.61
2018-11-06T19:50:08.472Z,68.79
2018-11-06T19:52:36.656Z,68.71
2018-11-06T19:55:05.563Z,68.60
2018-11-06T19:57:33.932Z,69.05
2018-11-06T20:00:02.161Z,68.77
2018-11-06T20:02:30.839Z,68.99
2018-11-06T20:04:59.139Z,68.93
2018-11-06T20:07:27.602Z,68.33
2018-11-06T20:09:56.036Z,68.38
2018-11-06T20:12:24.191Z,68.89
2018-11-06T20:14:52.469Z,68.42
2018-11-06T20:17:20.967Z,68.31
2018-11-06T20:19:50.071Z,68.30
2018-11-06T20:22:18.590Z,68.16
2018-11-06T20:24:47.050Z,68.24
2018-11-06T20:27:15.517Z,68.47
2018-11-06T20:29:44.643Z,68.69
2018-11-06T20:32:13.428Z,69.45
2018-11-06T20:34:41.771Z,68.43
2018-11-06T20:37:10.155Z,68.72
2018-11-06T20:39:38.703Z,68.80
2018-11-06T20:42:06.499Z,68.62
2018-11-06T20:44:34.698Z,68.90
2018-11-06T20:47:03.063Z,69.63
2018-11-06T20:49:31.713Z,70.53
2018-11-06T20:51:59.825Z,70.87
2018-11-06T20:54:28.088Z,70.83
2018-11-06T20:56:56.411Z,71.12
2018-11-06T20:59:24.674Z,71.83
2018-11-06T21:01:53.115Z,71.68
2018-11-06T21:04:20.976Z,70.98
2018-11-06T21:06:48.757Z,70.35
2018-11-06T21:09:16.940Z,70.28
2018-11-06T21:11:45.302Z,69.77
2018-11-06T21:14:13.456Z,69.95
2018-11-06T21:16:41.780Z,70.18
2018-11-06T21:19:09.530Z,70.17
2018-11-06T21:21:37.690Z,70.07
2018-11-06T21:24:05.844Z,69.74
2018-11-06T21:26:34.264Z,70.08
2018-11-06T21:29:02.498Z,70.24
2018-11-06T21:31:30.661Z,70.50
2018-11-06T21:33:59.190Z,71.20
2018-11-06T21:36:27.401Z,71.14
2018-11-06T21:38:55.787Z,70.74
2018-11-06T21:41:23.948Z,71.24
2018-11-06T21:43:52.016Z,70.96
2018-11-06T21:46:20.456Z,70.71
2018-11-06T21:48:48.567Z,70.64
2018-11-06T21:51:16.809Z,70.16
2018-11-06T21:53:45.284Z,70.12
2018-11-06T21:56:13.406Z,70.22
2018-11-06T21:58:41.812Z,70.86
2018-11-06T22:01:09.732Z,70.75
2018-11-06T22:03:38.035Z,71.05
2018-11-06T22:06:06.295Z,71.81
2018-11-06T22:08:34.559Z,72.58
2018-11-06T22:11:03.087Z,72.53
2018-11-06T22:13:31.458Z,72.11
2018-11-06T22:15:59.417Z,71.66
2018-11-06T22:18:27.662Z,72.61
2018-11-06T22:20:55.866Z,73.48
2018-11-06T22:23:23.966Z,74.36
2018-11-06T22:25:52.301Z,74.36
2018-11-06T22:28:20.776Z,74.17
2018-11-06T22:30:49.022Z,74.41
2018-11-06T22:33:17.350Z,74.60
2018-11-06T22:35:45.672Z,73.65
2018-11-06T22:38:13.883Z,73.71
2018-11-06T22:40:42.158Z,73.13
2018-11-06T22:43:10.590Z,74.37
2018-11-06T22:45:38.854Z,76.08
2018-11-06T22:48:06.865Z,75.43
2018-11-06T22:50:34.556Z,76.14
2018-11-06T22:53:02.374Z,76.09
2018-11-06T22:55:30.198Z,75.37
2018-11-06T22:57:57.907Z,75.15
2018-11-06T23:00:31.215Z,75.03
2018-11-06T23:02:58.959Z,74.87
2018-11-06T23:05:26.717Z,74.78
2018-11-06T23:07:59.834Z,74.58
2018-11-06T23:10:27.617Z,74.02
2018-11-06T23:12:55.352Z,73.90
2018-11-06T23:15:23.105Z,73.75
2018-11-06T23:17:50.879Z,74.00
2018-11-06T23:20:18.628Z,74.19
2018-11-06T23:22:46.351Z,74.17
2018-11-06T23:25:14.077Z,74.61
2018-11-06T23:27:41.876Z,75.26
2018-11-06T23:30:11.854Z,74.82
2018-11-06T23:32:39.627Z,75.59
2018-11-06T23:35:07.395Z,76.68
2018-11-06T23:37:35.156Z,77.00
2018-11-06T23:40:02.895Z,76.38
2018-11-06T23:42:31.370Z,76.45
2018-11-06T23:44:59.733Z,76.14
2018-11-06T23:47:28.243Z,76.47
2018-11-06T23:49:56.432Z,76.32
2018-11-06T23:52:24.743Z,77.20
2018-11-06T23:54:53.195Z,78.03
2018-11-06T23:57:21.452Z,78.00
2018-11-06T23:59:49.692Z,78.14
